Terminal Aerodrome Forecast
Issued by NWS

Home | Current Version | Previous Version | Text Only | Print | Product List | Glossary On
Versions: 1 2 3 4 5 6 7 8 9 10 11 12 13 14 15 16 17 18 19 20 21 22 23 24 25
371
FTUS46 KSGX 132104 AAA
TAFSAN
TAF AMD
KSAN 132104Z 1321/1424 29008KT P6SM FEW004 SCT200
     FM140100 VRB04KT P6SM VCFG FEW004
     FM140500 VRB03KT 1SM BR VCFG BKN003
      TEMPO 1406/1408 1/2SM FG OVC002
     FM140800 VRB03KT 1/4SM FG VV001
     FM141600 VRB03KT 2SM BR BKN003
     FM141700 29007KT P6SM SKC=

USA.gov is the U.S. government's official web portal to all federal, state and local government web resources and services.